sensor_id;sensor_type;location;lat;lon;timestamp;P1;durP1;ratioP1;P2;durP2;ratioP2
48524;SDS011;34316;51.514;-0.178;2022-10-31T00:01:57;6.30;;;3.30;;
48524;SDS011;34316;51.514;-0.178;2022-10-31T00:04:01;6.65;;;3.83;;
48524;SDS011;34316;51.514;-0.178;2022-10-31T00:06:03;5.03;;;3.00;;
48524;SDS011;34316;51.514;-0.178;2022-10-31T00:08:04;6.75;;;3.15;;
48524;SDS011;34316;51.514;-0.178;2022-10-31T00:10:06;7.75;;;3.78;;
48524;SDS011;34316;51.514;-0.178;2022-10-31T00:12:08;9.40;;;3.65;;
48524;SDS011;34316;51.514;-0.178;2022-10-31T00:14:10;8.70;;;3.88;;
48524;SDS011;34316;51.514;-0.178;2022-10-31T00:16:15;5.45;;;3.60;;
48524;SDS011;34316;51.514;-0.178;2022-10-31T00:18:17;6.75;;;3.25;;
48524;SDS011;34316;51.514;-0.178;2022-10-31T00:20:19;8.52;;;3.90;;
48524;SDS011;34316;51.514;-0.178;2022-10-31T00:22:21;6.60;;;3.80;;
48524;SDS011;34316;51.514;-0.178;2022-10-31T00:24:22;7.13;;;3.60;;
48524;SDS011;34316;51.514;-0.178;2022-10-31T00:26:26;9.23;;;3.95;;
48524;SDS011;34316;51.514;-0.178;2022-10-31T00:28:29;9.32;;;3.60;;
48524;SDS011;34316;51.514;-0.178;2022-10-31T00:30:31;7.70;;;4.00;;
48524;SDS011;34316;51.514;-0.178;2022-10-31T00:32:33;5.70;;;3.28;;
48524;SDS011;34316;51.514;-0.178;2022-10-31T00:34:35;5.30;;;3.25;;
48524;SDS011;34316;51.514;-0.178;2022-10-31T00:36:37;5.95;;;3.30;;
48524;SDS011;34316;51.514;-0.178;2022-10-31T00:38:38;5.70;;;3.50;;
48524;SDS011;34316;51.514;-0.178;2022-10-31T00:40:40;8.18;;;3.03;;
48524;SDS011;34316;51.514;-0.178;2022-10-31T00:42:42;7.57;;;3.30;;
48524;SDS011;34316;51.514;-0.178;2022-10-31T00:44:43;8.98;;;3.42;;
48524;SDS011;34316;51.514;-0.178;2022-10-31T00:46:45;5.20;;;2.83;;
48524;SDS011;34316;51.514;-0.178;2022-10-31T00:48:47;7.57;;;3.10;;
48524;SDS011;34316;51.514;-0.178;2022-10-31T00:50:48;6.88;;;2.85;;
48524;SDS011;34316;51.514;-0.178;2022-10-31T00:52:50;7.53;;;3.53;;
48524;SDS011;34316;51.514;-0.178;2022-10-31T00:54:52;8.10;;;3.40;;
48524;SDS011;34316;51.514;-0.178;2022-10-31T00:56:53;7.95;;;3.20;;
48524;SDS011;34316;51.514;-0.178;2022-10-31T00:58:55;5.43;;;3.00;;
48524;SDS011;34316;51.514;-0.178;2022-10-31T01:00:57;5.32;;;3.05;;
48524;SDS011;34316;51.514;-0.178;2022-10-31T01:02:59;4.95;;;2.78;;
48524;SDS011;34316;51.514;-0.178;2022-10-31T01:05:01;9.95;;;3.10;;
48524;SDS011;34316;51.514;-0.178;2022-10-31T01:07:03;6.38;;;2.95;;
48524;SDS011;34316;51.514;-0.178;2022-10-31T01:09:04;6.78;;;3.20;;
48524;SDS011;34316;51.514;-0.178;2022-10-31T01:13:18;6.47;;;3.55;;
48524;SDS011;34316;51.514;-0.178;2022-10-31T01:15:20;5.97;;;3.10;;
48524;SDS011;34316;51.514;-0.178;2022-10-31T01:17:23;6.07;;;2.85;;
48524;SDS011;34316;51.514;-0.178;2022-10-31T01:19:24;6.07;;;2.90;;
48524;SDS011;34316;51.514;-0.178;2022-10-31T01:21:27;6.72;;;2.92;;
48524;SDS011;34316;51.514;-0.178;2022-10-31T01:23:29;8.45;;;3.08;;
48524;SDS011;34316;51.514;-0.178;2022-10-31T01:25:31;6.35;;;3.30;;
48524;SDS011;34316;51.514;-0.178;2022-10-31T01:27:33;8.90;;;3.78;;
48524;SDS011;34316;51.514;-0.178;2022-10-31T01:29:35;5.82;;;3.33;;
48524;SDS011;34316;51.514;-0.178;2022-10-31T01:31:38;8.48;;;3.53;;
48524;SDS011;34316;51.514;-0.178;2022-10-31T01:33:40;7.82;;;3.83;;
48524;SDS011;34316;51.514;-0.178;2022-10-31T01:35:42;8.70;;;3.88;;
48524;SDS011;34316;51.514;-0.178;2022-10-31T01:37:43;6.63;;;3.85;;
48524;SDS011;34316;51.514;-0.178;2022-10-31T01:39:45;5.88;;;3.35;;
48524;SDS011;34316;51.514;-0.178;2022-10-31T01:41:48;7.05;;;4.00;;
48524;SDS011;34316;51.514;-0.178;2022-10-31T01:45:54;6.80;;;4.18;;
48524;SDS011;34316;51.514;-0.178;2022-10-31T01:47:55;10.13;;;3.55;;
48524;SDS011;34316;51.514;-0.178;2022-10-31T01:49:59;7.30;;;3.80;;
48524;SDS011;34316;51.514;-0.178;2022-10-31T01:54:27;6.38;;;4.20;;
48524;SDS011;34316;51.514;-0.178;2022-10-31T01:56:32;8.88;;;4.65;;
48524;SDS011;34316;51.514;-0.178;2022-10-31T01:58:34;7.13;;;4.00;;
48524;SDS011;34316;51.514;-0.178;2022-10-31T02:00:36;9.50;;;4.60;;
48524;SDS011;34316;51.514;-0.178;2022-10-31T02:02:38;8.05;;;4.28;;
48524;SDS011;34316;51.514;-0.178;2022-10-31T02:04:40;8.38;;;4.53;;
48524;SDS011;34316;51.514;-0.178;2022-10-31T02:06:46;7.55;;;4.30;;
48524;SDS011;34316;51.514;-0.178;2022-10-31T02:08:55;7.22;;;4.75;;
48524;SDS011;34316;51.514;-0.178;2022-10-31T02:10:59;10.38;;;4.97;;
48524;SDS011;34316;51.514;-0.178;2022-10-31T02:13:03;10.43;;;4.80;;
48524;SDS011;34316;51.514;-0.178;2022-10-31T02:15:06;13.05;;;5.32;;
48524;SDS011;34316;51.514;-0.178;2022-10-31T02:17:08;8.88;;;5.53;;
48524;SDS011;34316;51.514;-0.178;2022-10-31T02:19:11;10.85;;;5.05;;
48524;SDS011;34316;51.514;-0.178;2022-10-31T02:40:29;7.50;;;4.88;;
48524;SDS011;34316;51.514;-0.178;2022-10-31T02:47:19;11.43;;;5.65;;
48524;SDS011;34316;51.514;-0.178;2022-10-31T02:49:28;11.65;;;5.25;;
48524;SDS011;34316;51.514;-0.178;2022-10-31T02:51:43;8.98;;;5.30;;
48524;SDS011;34316;51.514;-0.178;2022-10-31T02:53:46;11.93;;;5.85;;
48524;SDS011;34316;51.514;-0.178;2022-10-31T02:55:58;13.88;;;5.90;;
48524;SDS011;34316;51.514;-0.178;2022-10-31T02:58:21;8.80;;;5.63;;
48524;SDS011;34316;51.514;-0.178;2022-10-31T03:00:24;10.25;;;5.50;;
48524;SDS011;34316;51.514;-0.178;2022-10-31T03:05:40;14.45;;;6.07;;
48524;SDS011;34316;51.514;-0.178;2022-10-31T03:14:14;10.88;;;5.90;;
48524;SDS011;34316;51.514;-0.178;2022-10-31T03:16:23;10.27;;;5.78;;
48524;SDS011;34316;51.514;-0.178;2022-10-31T03:18:40;8.43;;;5.25;;
48524;SDS011;34316;51.514;-0.178;2022-10-31T03:20:47;10.57;;;5.78;;
48524;SDS011;34316;51.514;-0.178;2022-10-31T03:22:52;12.10;;;5.90;;
48524;SDS011;34316;51.514;-0.178;2022-10-31T03:24:53;9.55;;;5.43;;
48524;SDS011;34316;51.514;-0.178;2022-10-31T03:26:56;9.80;;;5.53;;
48524;SDS011;34316;51.514;-0.178;2022-10-31T03:29:01;9.38;;;5.53;;
48524;SDS011;34316;51.514;-0.178;2022-10-31T03:31:05;10.48;;;5.38;;
48524;SDS011;34316;51.514;-0.178;2022-10-31T03:33:09;12.52;;;5.40;;
48524;SDS011;34316;51.514;-0.178;2022-10-31T03:35:13;12.75;;;6.13;;
48524;SDS011;34316;51.514;-0.178;2022-10-31T03:37:17;7.75;;;5.32;;
48524;SDS011;34316;51.514;-0.178;2022-10-31T03:39:20;9.88;;;5.30;;
48524;SDS011;34316;51.514;-0.178;2022-10-31T03:41:23;8.13;;;5.25;;
48524;SDS011;34316;51.514;-0.178;2022-10-31T03:43:28;10.45;;;5.65;;
48524;SDS011;34316;51.514;-0.178;2022-10-31T03:45:32;13.32;;;5.38;;
48524;SDS011;34316;51.514;-0.178;2022-10-31T03:47:35;7.88;;;5.40;;
48524;SDS011;34316;51.514;-0.178;2022-10-31T03:49:38;9.65;;;5.55;;
48524;SDS011;34316;51.514;-0.178;2022-10-31T03:53:57;14.15;;;6.30;;
48524;SDS011;34316;51.514;-0.178;2022-10-31T03:58:28;12.35;;;6.80;;
48524;SDS011;34316;51.514;-0.178;2022-10-31T04:00:43;14.50;;;6.15;;
48524;SDS011;34316;51.514;-0.178;2022-10-31T04:02:51;12.60;;;6.37;;
48524;SDS011;34316;51.514;-0.178;2022-10-31T04:04:58;13.80;;;6.70;;
48524;SDS011;34316;51.514;-0.178;2022-10-31T04:07:00;11.57;;;7.18;;
48524;SDS011;34316;51.514;-0.178;2022-10-31T04:09:03;28.55;;;8.05;;
48524;SDS011;34316;51.514;-0.178;2022-10-31T04:11:06;13.30;;;7.38;;
48524;SDS011;34316;51.514;-0.178;2022-10-31T04:13:11;12.63;;;7.70;;
48524;SDS011;34316;51.514;-0.178;2022-10-31T04:15:14;12.73;;;6.78;;
48524;SDS011;34316;51.514;-0.178;2022-10-31T04:17:17;14.68;;;7.85;;
48524;SDS011;34316;51.514;-0.178;2022-10-31T04:19:20;15.57;;;7.40;;
48524;SDS011;34316;51.514;-0.178;2022-10-31T04:21:28;13.50;;;7.65;;
48524;SDS011;34316;51.514;-0.178;2022-10-31T04:23:31;12.88;;;7.45;;
48524;SDS011;34316;51.514;-0.178;2022-10-31T04:25:34;12.68;;;7.10;;
48524;SDS011;34316;51.514;-0.178;2022-10-31T04:27:35;13.40;;;7.05;;
48524;SDS011;34316;51.514;-0.178;2022-10-31T04:29:37;15.32;;;7.90;;
48524;SDS011;34316;51.514;-0.178;2022-10-31T04:31:39;12.60;;;7.35;;
48524;SDS011;34316;51.514;-0.178;2022-10-31T04:33:40;16.13;;;7.68;;
48524;SDS011;34316;51.514;-0.178;2022-10-31T04:35:42;11.43;;;7.18;;
48524;SDS011;34316;51.514;-0.178;2022-10-31T04:37:44;19.98;;;8.07;;
48524;SDS011;34316;51.514;-0.178;2022-10-31T04:39:45;13.48;;;7.60;;
48524;SDS011;34316;51.514;-0.178;2022-10-31T04:41:47;14.15;;;8.20;;
48524;SDS011;34316;51.514;-0.178;2022-10-31T04:43:48;15.25;;;7.95;;
48524;SDS011;34316;51.514;-0.178;2022-10-31T04:45:50;13.90;;;8.02;;
48524;SDS011;34316;51.514;-0.178;2022-10-31T04:47:53;16.13;;;8.80;;
48524;SDS011;34316;51.514;-0.178;2022-10-31T04:49:55;14.07;;;8.25;;
48524;SDS011;34316;51.514;-0.178;2022-10-31T04:51:56;17.27;;;8.60;;
48524;SDS011;34316;51.514;-0.178;2022-10-31T04:53:58;13.73;;;7.47;;
48524;SDS011;34316;51.514;-0.178;2022-10-31T04:56:00;14.93;;;8.20;;
48524;SDS011;34316;51.514;-0.178;2022-10-31T04:58:02;21.30;;;9.20;;
48524;SDS011;34316;51.514;-0.178;2022-10-31T05:00:04;19.38;;;9.43;;
48524;SDS011;34316;51.514;-0.178;2022-10-31T05:02:06;17.77;;;9.07;;
48524;SDS011;34316;51.514;-0.178;2022-10-31T05:04:08;17.63;;;8.63;;
48524;SDS011;34316;51.514;-0.178;2022-10-31T05:06:10;13.68;;;8.75;;
48524;SDS011;34316;51.514;-0.178;2022-10-31T05:08:11;18.20;;;8.68;;
48524;SDS011;34316;51.514;-0.178;2022-10-31T05:10:14;14.10;;;9.52;;
48524;SDS011;34316;51.514;-0.178;2022-10-31T05:12:17;15.95;;;9.10;;
48524;SDS011;34316;51.514;-0.178;2022-10-31T05:14:19;13.93;;;9.55;;
48524;SDS011;34316;51.514;-0.178;2022-10-31T05:16:21;19.42;;;10.40;;
48524;SDS011;34316;51.514;-0.178;2022-10-31T05:18:22;25.40;;;10.63;;
48524;SDS011;34316;51.514;-0.178;2022-10-31T05:20:26;19.52;;;11.13;;
48524;SDS011;34316;51.514;-0.178;2022-10-31T05:22:29;17.65;;;9.43;;
48524;SDS011;34316;51.514;-0.178;2022-10-31T05:24:31;19.80;;;9.93;;
48524;SDS011;34316;51.514;-0.178;2022-10-31T05:26:32;13.75;;;9.57;;
48524;SDS011;34316;51.514;-0.178;2022-10-31T05:28:34;16.40;;;9.80;;
48524;SDS011;34316;51.514;-0.178;2022-10-31T05:30:35;23.92;;;10.43;;
48524;SDS011;34316;51.514;-0.178;2022-10-31T05:32:41;16.95;;;10.07;;
48524;SDS011;34316;51.514;-0.178;2022-10-31T05:34:44;23.42;;;13.00;;
48524;SDS011;34316;51.514;-0.178;2022-10-31T05:36:46;23.65;;;12.30;;
48524;SDS011;34316;51.514;-0.178;2022-10-31T05:38:47;26.08;;;13.30;;
48524;SDS011;34316;51.514;-0.178;2022-10-31T05:40:49;24.98;;;12.35;;
48524;SDS011;34316;51.514;-0.178;2022-10-31T05:42:51;19.20;;;11.27;;
48524;SDS011;34316;51.514;-0.178;2022-10-31T05:44:53;25.87;;;10.83;;
48524;SDS011;34316;51.514;-0.178;2022-10-31T05:46:55;20.83;;;10.20;;
48524;SDS011;34316;51.514;-0.178;2022-10-31T05:48:57;22.00;;;10.90;;
48524;SDS011;34316;51.514;-0.178;2022-10-31T05:51:02;24.08;;;11.32;;
48524;SDS011;34316;51.514;-0.178;2022-10-31T05:53:04;19.50;;;10.70;;
48524;SDS011;34316;51.514;-0.178;2022-10-31T05:55:06;24.08;;;11.35;;
48524;SDS011;34316;51.514;-0.178;2022-10-31T05:57:08;13.68;;;9.98;;
48524;SDS011;34316;51.514;-0.178;2022-10-31T05:59:10;24.67;;;11.25;;
48524;SDS011;34316;51.514;-0.178;2022-10-31T06:01:12;28.35;;;12.63;;
48524;SDS011;34316;51.514;-0.178;2022-10-31T06:03:13;29.08;;;14.00;;
48524;SDS011;34316;51.514;-0.178;2022-10-31T06:05:15;23.70;;;12.82;;
48524;SDS011;34316;51.514;-0.178;2022-10-31T06:07:17;30.48;;;11.85;;
48524;SDS011;34316;51.514;-0.178;2022-10-31T06:09:19;16.50;;;11.73;;
48524;SDS011;34316;51.514;-0.178;2022-10-31T06:11:21;19.15;;;11.02;;
48524;SDS011;34316;51.514;-0.178;2022-10-31T06:13:23;17.77;;;11.02;;
48524;SDS011;34316;51.514;-0.178;2022-10-31T06:15:24;21.58;;;11.27;;
48524;SDS011;34316;51.514;-0.178;2022-10-31T06:17:26;17.08;;;11.02;;
48524;SDS011;34316;51.514;-0.178;2022-10-31T06:19:28;20.80;;;10.98;;
48524;SDS011;34316;51.514;-0.178;2022-10-31T06:21:29;18.55;;;11.13;;
48524;SDS011;34316;51.514;-0.178;2022-10-31T06:23:31;19.40;;;11.35;;
48524;SDS011;34316;51.514;-0.178;2022-10-31T06:25:33;18.73;;;11.20;;
48524;SDS011;34316;51.514;-0.178;2022-10-31T06:27:34;23.20;;;11.35;;
48524;SDS011;34316;51.514;-0.178;2022-10-31T06:29:36;22.02;;;10.73;;
48524;SDS011;34316;51.514;-0.178;2022-10-31T06:31:38;17.67;;;11.55;;
48524;SDS011;34316;51.514;-0.178;2022-10-31T06:33:42;19.70;;;10.73;;
48524;SDS011;34316;51.514;-0.178;2022-10-31T06:35:45;22.58;;;12.30;;
48524;SDS011;34316;51.514;-0.178;2022-10-31T06:37:51;21.40;;;12.02;;
48524;SDS011;34316;51.514;-0.178;2022-10-31T06:39:55;23.55;;;11.63;;
48524;SDS011;34316;51.514;-0.178;2022-10-31T06:41:57;21.85;;;11.90;;
48524;SDS011;34316;51.514;-0.178;2022-10-31T06:43:59;20.05;;;12.20;;
48524;SDS011;34316;51.514;-0.178;2022-10-31T06:46:08;22.02;;;12.18;;
48524;SDS011;34316;51.514;-0.178;2022-10-31T06:48:10;18.67;;;11.77;;
48524;SDS011;34316;51.514;-0.178;2022-10-31T06:50:17;17.35;;;11.10;;
48524;SDS011;34316;51.514;-0.178;2022-10-31T06:52:19;21.95;;;13.10;;
48524;SDS011;34316;51.514;-0.178;2022-10-31T06:54:21;20.88;;;12.43;;
48524;SDS011;34316;51.514;-0.178;2022-10-31T06:56:23;18.63;;;12.57;;
48524;SDS011;34316;51.514;-0.178;2022-10-31T06:58:24;19.00;;;12.63;;
48524;SDS011;34316;51.514;-0.178;2022-10-31T07:00:27;23.67;;;12.55;;
48524;SDS011;34316;51.514;-0.178;2022-10-31T07:04:31;18.88;;;12.43;;
48524;SDS011;34316;51.514;-0.178;2022-10-31T07:06:33;20.77;;;13.23;;
48524;SDS011;34316;51.514;-0.178;2022-10-31T07:08:34;25.10;;;13.48;;
48524;SDS011;34316;51.514;-0.178;2022-10-31T07:10:36;21.05;;;13.32;;
48524;SDS011;34316;51.514;-0.178;2022-10-31T07:12:41;22.55;;;12.82;;
48524;SDS011;34316;51.514;-0.178;2022-10-31T07:14:43;24.13;;;13.38;;
48524;SDS011;34316;51.514;-0.178;2022-10-31T07:16:48;21.70;;;13.32;;
48524;SDS011;34316;51.514;-0.178;2022-10-31T07:18:51;22.20;;;13.30;;
48524;SDS011;34316;51.514;-0.178;2022-10-31T07:20:52;22.20;;;12.82;;
48524;SDS011;34316;51.514;-0.178;2022-10-31T07:22:54;22.48;;;14.05;;
48524;SDS011;34316;51.514;-0.178;2022-10-31T07:24:56;21.63;;;13.02;;
48524;SDS011;34316;51.514;-0.178;2022-10-31T07:26:57;19.30;;;13.93;;
48524;SDS011;34316;51.514;-0.178;2022-10-31T07:29:04;29.45;;;13.75;;
48524;SDS011;34316;51.514;-0.178;2022-10-31T07:31:06;19.73;;;14.15;;
48524;SDS011;34316;51.514;-0.178;2022-10-31T07:33:08;20.02;;;14.65;;
48524;SDS011;34316;51.514;-0.178;2022-10-31T07:35:10;26.17;;;15.60;;
48524;SDS011;34316;51.514;-0.178;2022-10-31T07:37:13;24.30;;;14.98;;
48524;SDS011;34316;51.514;-0.178;2022-10-31T07:39:15;26.38;;;14.90;;
48524;SDS011;34316;51.514;-0.178;2022-10-31T07:41:17;30.15;;;15.13;;
48524;SDS011;34316;51.514;-0.178;2022-10-31T07:43:18;22.98;;;14.45;;
48524;SDS011;34316;51.514;-0.178;2022-10-31T07:45:20;27.40;;;16.00;;
48524;SDS011;34316;51.514;-0.178;2022-10-31T07:47:22;21.15;;;14.52;;
48524;SDS011;34316;51.514;-0.178;2022-10-31T07:49:24;25.80;;;15.27;;
48524;SDS011;34316;51.514;-0.178;2022-10-31T07:51:26;24.10;;;14.40;;
48524;SDS011;34316;51.514;-0.178;2022-10-31T07:53:28;26.98;;;15.55;;
48524;SDS011;34316;51.514;-0.178;2022-10-31T07:55:30;28.08;;;15.45;;
48524;SDS011;34316;51.514;-0.178;2022-10-31T07:57:32;23.20;;;14.52;;
48524;SDS011;34316;51.514;-0.178;2022-10-31T07:59:35;35.43;;;14.97;;
48524;SDS011;34316;51.514;-0.178;2022-10-31T08:01:36;28.10;;;15.32;;
48524;SDS011;34316;51.514;-0.178;2022-10-31T08:03:38;25.17;;;15.07;;
48524;SDS011;34316;51.514;-0.178;2022-10-31T08:05:40;22.75;;;14.10;;
48524;SDS011;34316;51.514;-0.178;2022-10-31T08:07:47;21.92;;;14.00;;
48524;SDS011;34316;51.514;-0.178;2022-10-31T08:09:48;23.55;;;14.20;;
48524;SDS011;34316;51.514;-0.178;2022-10-31T08:11:50;22.27;;;14.38;;
48524;SDS011;34316;51.514;-0.178;2022-10-31T08:13:51;23.52;;;14.32;;
48524;SDS011;34316;51.514;-0.178;2022-10-31T08:15:53;24.23;;;13.95;;
48524;SDS011;34316;51.514;-0.178;2022-10-31T08:17:55;23.75;;;13.20;;
48524;SDS011;34316;51.514;-0.178;2022-10-31T08:19:58;19.50;;;13.25;;
48524;SDS011;34316;51.514;-0.178;2022-10-31T08:21:59;24.40;;;13.02;;
48524;SDS011;34316;51.514;-0.178;2022-10-31T08:24:01;23.35;;;14.20;;
48524;SDS011;34316;51.514;-0.178;2022-10-31T08:26:03;19.27;;;12.80;;
48524;SDS011;34316;51.514;-0.178;2022-10-31T08:28:08;25.70;;;13.50;;
48524;SDS011;34316;51.514;-0.178;2022-10-31T08:30:11;18.25;;;12.57;;
48524;SDS011;34316;51.514;-0.178;2022-10-31T08:32:12;25.13;;;14.07;;
48524;SDS011;34316;51.514;-0.178;2022-10-31T08:34:14;20.27;;;13.27;;
48524;SDS011;34316;51.514;-0.178;2022-10-31T08:36:16;20.02;;;13.43;;
48524;SDS011;34316;51.514;-0.178;2022-10-31T08:38:17;25.08;;;14.75;;
48524;SDS011;34316;51.514;-0.178;2022-10-31T08:40:19;20.73;;;13.65;;
48524;SDS011;34316;51.514;-0.178;2022-10-31T08:42:21;26.83;;;16.23;;
48524;SDS011;34316;51.514;-0.178;2022-10-31T08:44:22;21.48;;;11.95;;
48524;SDS011;34316;51.514;-0.178;2022-10-31T08:46:24;23.75;;;11.95;;
48524;SDS011;34316;51.514;-0.178;2022-10-31T08:48:26;20.08;;;13.77;;
48524;SDS011;34316;51.514;-0.178;2022-10-31T08:50:28;18.58;;;12.45;;
48524;SDS011;34316;51.514;-0.178;2022-10-31T08:52:30;17.23;;;10.75;;
48524;SDS011;34316;51.514;-0.178;2022-10-31T08:54:52;18.10;;;11.07;;
48524;SDS011;34316;51.514;-0.178;2022-10-31T08:56:54;17.63;;;11.77;;
48524;SDS011;34316;51.514;-0.178;2022-10-31T08:58:56;18.08;;;11.65;;
48524;SDS011;34316;51.514;-0.178;2022-10-31T09:00:59;22.48;;;11.50;;
48524;SDS011;34316;51.514;-0.178;2022-10-31T09:03:02;20.03;;;11.43;;
48524;SDS011;34316;51.514;-0.178;2022-10-31T09:05:05;23.20;;;11.93;;
48524;SDS011;34316;51.514;-0.178;2022-10-31T09:07:07;19.83;;;11.30;;
48524;SDS011;34316;51.514;-0.178;2022-10-31T09:09:21;23.75;;;11.32;;
48524;SDS011;34316;51.514;-0.178;2022-10-31T09:11:23;25.25;;;10.82;;
48524;SDS011;34316;51.514;-0.178;2022-10-31T09:13:25;15.00;;;9.13;;
48524;SDS011;34316;51.514;-0.178;2022-10-31T09:15:28;18.30;;;9.15;;
48524;SDS011;34316;51.514;-0.178;2022-10-31T09:17:30;19.15;;;9.07;;
48524;SDS011;34316;51.514;-0.178;2022-10-31T09:19:32;20.90;;;8.57;;
48524;SDS011;34316;51.514;-0.178;2022-10-31T09:21:33;14.55;;;8.40;;
48524;SDS011;34316;51.514;-0.178;2022-10-31T09:23:35;15.13;;;9.07;;
48524;SDS011;34316;51.514;-0.178;2022-10-31T09:25:37;11.85;;;8.40;;
48524;SDS011;34316;51.514;-0.178;2022-10-31T09:27:39;15.88;;;9.60;;
48524;SDS011;34316;51.514;-0.178;2022-10-31T09:29:40;16.95;;;10.50;;
48524;SDS011;34316;51.514;-0.178;2022-10-31T09:31:42;16.23;;;9.93;;
48524;SDS011;34316;51.514;-0.178;2022-10-31T09:33:45;20.58;;;10.50;;
48524;SDS011;34316;51.514;-0.178;2022-10-31T09:35:47;15.18;;;9.50;;
48524;SDS011;34316;51.514;-0.178;2022-10-31T09:38:10;20.10;;;9.98;;
48524;SDS011;34316;51.514;-0.178;2022-10-31T09:40:11;27.33;;;9.73;;
48524;SDS011;34316;51.514;-0.178;2022-10-31T09:42:26;17.27;;;8.10;;
48524;SDS011;34316;51.514;-0.178;2022-10-31T09:47:27;13.38;;;8.80;;
48524;SDS011;34316;51.514;-0.178;2022-10-31T09:51:59;12.50;;;7.28;;
48524;SDS011;34316;51.514;-0.178;2022-10-31T09:54:14;16.48;;;8.05;;
48524;SDS011;34316;51.514;-0.178;2022-10-31T09:56:18;12.98;;;7.15;;
48524;SDS011;34316;51.514;-0.178;2022-10-31T09:58:26;11.95;;;7.38;;
48524;SDS011;34316;51.514;-0.178;2022-10-31T10:00:28;15.63;;;7.70;;
48524;SDS011;34316;51.514;-0.178;2022-10-31T10:02:33;11.95;;;7.22;;
48524;SDS011;34316;51.514;-0.178;2022-10-31T10:07:08;16.40;;;6.57;;
48524;SDS011;34316;51.514;-0.178;2022-10-31T10:09:19;13.30;;;6.35;;
48524;SDS011;34316;51.514;-0.178;2022-10-31T10:11:29;9.20;;;6.10;;
48524;SDS011;34316;51.514;-0.178;2022-10-31T10:16:12;10.77;;;6.38;;
48524;SDS011;34316;51.514;-0.178;2022-10-31T10:22:55;9.95;;;5.43;;
48524;SDS011;34316;51.514;-0.178;2022-10-31T10:25:22;9.32;;;5.15;;
48524;SDS011;34316;51.514;-0.178;2022-10-31T10:32:01;9.88;;;5.32;;
48524;SDS011;34316;51.514;-0.178;2022-10-31T10:34:12;9.75;;;4.47;;
48524;SDS011;34316;51.514;-0.178;2022-10-31T10:36:25;9.05;;;5.15;;
48524;SDS011;34316;51.514;-0.178;2022-10-31T10:40:38;13.40;;;4.30;;
48524;SDS011;34316;51.514;-0.178;2022-10-31T10:42:42;11.17;;;4.07;;
48524;SDS011;34316;51.514;-0.178;2022-10-31T10:45:18;11.95;;;6.10;;
48524;SDS011;34316;51.514;-0.178;2022-10-31T10:47:41;10.23;;;4.78;;
48524;SDS011;34316;51.514;-0.178;2022-10-31T10:55:03;13.25;;;4.85;;
48524;SDS011;34316;51.514;-0.178;2022-10-31T10:57:44;12.93;;;4.90;;
48524;SDS011;34316;51.514;-0.178;2022-10-31T10:59:56;9.00;;;3.90;;
48524;SDS011;34316;51.514;-0.178;2022-10-31T11:02:00;12.07;;;3.63;;
48524;SDS011;34316;51.514;-0.178;2022-10-31T11:04:02;9.00;;;4.40;;
48524;SDS011;34316;51.514;-0.178;2022-10-31T11:06:04;8.57;;;3.90;;
48524;SDS011;34316;51.514;-0.178;2022-10-31T11:08:06;6.40;;;3.33;;
48524;SDS011;34316;51.514;-0.178;2022-10-31T11:10:11;13.10;;;3.90;;
48524;SDS011;34316;51.514;-0.178;2022-10-31T11:14:23;6.93;;;3.55;;
48524;SDS011;34316;51.514;-0.178;2022-10-31T11:16:38;9.73;;;5.30;;
48524;SDS011;34316;51.514;-0.178;2022-10-31T11:18:42;15.57;;;5.43;;
48524;SDS011;34316;51.514;-0.178;2022-10-31T11:20:50;13.45;;;4.90;;
48524;SDS011;34316;51.514;-0.178;2022-10-31T11:23:00;8.52;;;4.03;;
48524;SDS011;34316;51.514;-0.178;2022-10-31T11:27:22;10.50;;;4.82;;
48524;SDS011;34316;51.514;-0.178;2022-10-31T11:29:25;13.02;;;4.68;;
48524;SDS011;34316;51.514;-0.178;2022-10-31T11:31:27;12.85;;;4.45;;
48524;SDS011;34316;51.514;-0.178;2022-10-31T11:35:40;11.48;;;4.10;;
48524;SDS011;34316;51.514;-0.178;2022-10-31T11:37:42;9.15;;;4.28;;
48524;SDS011;34316;51.514;-0.178;2022-10-31T11:39:45;8.93;;;3.95;;
48524;SDS011;34316;51.514;-0.178;2022-10-31T11:41:54;10.10;;;3.72;;
48524;SDS011;34316;51.514;-0.178;2022-10-31T11:43:57;9.07;;;4.10;;
48524;SDS011;34316;51.514;-0.178;2022-10-31T11:46:08;11.32;;;4.07;;
48524;SDS011;34316;51.514;-0.178;2022-10-31T11:48:15;10.73;;;4.20;;
48524;SDS011;34316;51.514;-0.178;2022-10-31T11:50:26;14.00;;;4.82;;
48524;SDS011;34316;51.514;-0.178;2022-10-31T11:52:30;11.07;;;4.38;;
48524;SDS011;34316;51.514;-0.178;2022-10-31T11:54:39;12.45;;;4.75;;
48524;SDS011;34316;51.514;-0.178;2022-10-31T11:56:46;12.32;;;3.83;;
48524;SDS011;34316;51.514;-0.178;2022-10-31T11:59:01;10.77;;;4.53;;
48524;SDS011;34316;51.514;-0.178;2022-10-31T12:01:20;9.52;;;4.05;;
48524;SDS011;34316;51.514;-0.178;2022-10-31T12:03:32;7.00;;;3.47;;
48524;SDS011;34316;51.514;-0.178;2022-10-31T12:08:16;6.57;;;3.78;;
48524;SDS011;34316;51.514;-0.178;2022-10-31T12:10:19;11.80;;;4.05;;
48524;SDS011;34316;51.514;-0.178;2022-10-31T12:21:47;10.43;;;3.60;;
48524;SDS011;34316;51.514;-0.178;2022-10-31T12:35:25;9.60;;;3.40;;
48524;SDS011;34316;51.514;-0.178;2022-10-31T12:51:42;7.75;;;3.70;;
48524;SDS011;34316;51.514;-0.178;2022-10-31T12:54:01;9.60;;;4.03;;
48524;SDS011;34316;51.514;-0.178;2022-10-31T13:01:28;12.27;;;3.83;;
48524;SDS011;34316;51.514;-0.178;2022-10-31T13:05:56;9.57;;;4.15;;
48524;SDS011;34316;51.514;-0.178;2022-10-31T13:08:06;9.82;;;4.18;;
48524;SDS011;34316;51.514;-0.178;2022-10-31T13:10:31;10.93;;;3.97;;
48524;SDS011;34316;51.514;-0.178;2022-10-31T13:12:36;10.70;;;3.85;;
48524;SDS011;34316;51.514;-0.178;2022-10-31T13:14:39;9.93;;;3.65;;
48524;SDS011;34316;51.514;-0.178;2022-10-31T13:16:44;11.82;;;3.58;;
48524;SDS011;34316;51.514;-0.178;2022-10-31T13:18:55;12.77;;;4.10;;
48524;SDS011;34316;51.514;-0.178;2022-10-31T13:21:01;6.53;;;3.83;;
48524;SDS011;34316;51.514;-0.178;2022-10-31T13:25:36;10.30;;;4.25;;
48524;SDS011;34316;51.514;-0.178;2022-10-31T13:30:14;11.93;;;4.28;;
48524;SDS011;34316;51.514;-0.178;2022-10-31T13:32:21;10.07;;;4.20;;
48524;SDS011;34316;51.514;-0.178;2022-10-31T13:36:33;8.13;;;3.47;;
48524;SDS011;34316;51.514;-0.178;2022-10-31T13:40:56;7.35;;;3.60;;
48524;SDS011;34316;51.514;-0.178;2022-10-31T13:43:51;8.27;;;3.97;;
48524;SDS011;34316;51.514;-0.178;2022-10-31T13:45:31;10.35;;;3.85;;
48524;SDS011;34316;51.514;-0.178;2022-10-31T13:47:32;13.02;;;3.70;;
48524;SDS011;34316;51.514;-0.178;2022-10-31T13:51:36;9.15;;;4.07;;
48524;SDS011;34316;51.514;-0.178;2022-10-31T13:53:59;8.20;;;3.58;;
48524;SDS011;34316;51.514;-0.178;2022-10-31T13:56:17;10.07;;;4.13;;
48524;SDS011;34316;51.514;-0.178;2022-10-31T13:58:28;8.55;;;3.33;;
48524;SDS011;34316;51.514;-0.178;2022-10-31T14:00:31;8.27;;;2.95;;
48524;SDS011;34316;51.514;-0.178;2022-10-31T14:02:37;9.27;;;3.65;;
48524;SDS011;34316;51.514;-0.178;2022-10-31T14:04:48;9.27;;;3.58;;
48524;SDS011;34316;51.514;-0.178;2022-10-31T14:07:13;9.75;;;3.58;;
48524;SDS011;34316;51.514;-0.178;2022-10-31T14:09:27;8.50;;;3.80;;
48524;SDS011;34316;51.514;-0.178;2022-10-31T14:11:30;12.07;;;3.53;;
48524;SDS011;34316;51.514;-0.178;2022-10-31T14:13:44;10.23;;;4.07;;
48524;SDS011;34316;51.514;-0.178;2022-10-31T14:20:41;9.77;;;3.97;;
48524;SDS011;34316;51.514;-0.178;2022-10-31T14:22:44;11.65;;;3.35;;
48524;SDS011;34316;51.514;-0.178;2022-10-31T14:24:45;12.55;;;4.28;;
48524;SDS011;34316;51.514;-0.178;2022-10-31T14:29:20;8.20;;;3.42;;
48524;SDS011;34316;51.514;-0.178;2022-10-31T14:33:42;8.98;;;3.28;;
48524;SDS011;34316;51.514;-0.178;2022-10-31T14:35:53;8.53;;;3.40;;